sensor_id;sensor_type;location;lat;lon;timestamp;P1;durP1;ratioP1;P2;durP2;ratioP2
15482;SDS011;7843;50.330;7.312;2024-01-07T00:02:00;14.30;;;5.23;;
15482;SDS011;7843;50.330;7.312;2024-01-07T00:04:27;6.25;;;4.47;;
15482;SDS011;7843;50.330;7.312;2024-01-07T00:06:53;12.02;;;6.00;;
15482;SDS011;7843;50.330;7.312;2024-01-07T00:09:20;13.98;;;5.57;;
15482;SDS011;7843;50.330;7.312;2024-01-07T00:11:47;9.57;;;5.07;;
15482;SDS011;7843;50.330;7.312;2024-01-07T00:14:15;14.73;;;4.77;;
15482;SDS011;7843;50.330;7.312;2024-01-07T00:16:42;7.87;;;3.57;;
15482;SDS011;7843;50.330;7.312;2024-01-07T00:19:09;11.60;;;5.50;;
15482;SDS011;7843;50.330;7.312;2024-01-07T00:21:36;10.57;;;4.50;;
15482;SDS011;7843;50.330;7.312;2024-01-07T00:24:03;11.32;;;4.45;;
15482;SDS011;7843;50.330;7.312;2024-01-07T00:26:29;4.83;;;3.70;;
15482;SDS011;7843;50.330;7.312;2024-01-07T00:28:56;11.87;;;5.20;;
15482;SDS011;7843;50.330;7.312;2024-01-07T00:31:23;11.95;;;4.80;;
15482;SDS011;7843;50.330;7.312;2024-01-07T00:33:50;9.40;;;4.77;;
15482;SDS011;7843;50.330;7.312;2024-01-07T00:36:16;8.40;;;5.00;;
15482;SDS011;7843;50.330;7.312;2024-01-07T00:38:43;9.25;;;4.72;;
15482;SDS011;7843;50.330;7.312;2024-01-07T00:41:10;12.27;;;6.05;;
15482;SDS011;7843;50.330;7.312;2024-01-07T00:43:37;12.10;;;5.60;;
15482;SDS011;7843;50.330;7.312;2024-01-07T00:46:03;16.53;;;6.20;;
15482;SDS011;7843;50.330;7.312;2024-01-07T00:48:30;13.07;;;6.15;;
15482;SDS011;7843;50.330;7.312;2024-01-07T00:50:57;5.82;;;3.67;;
15482;SDS011;7843;50.330;7.312;2024-01-07T00:53:24;7.30;;;4.70;;
15482;SDS011;7843;50.330;7.312;2024-01-07T00:55:50;11.48;;;5.38;;
15482;SDS011;7843;50.330;7.312;2024-01-07T00:58:18;7.20;;;3.60;;
15482;SDS011;7843;50.330;7.312;2024-01-07T01:00:45;9.35;;;5.28;;
15482;SDS011;7843;50.330;7.312;2024-01-07T01:03:11;16.60;;;5.05;;
15482;SDS011;7843;50.330;7.312;2024-01-07T01:05:38;13.80;;;4.35;;
15482;SDS011;7843;50.330;7.312;2024-01-07T01:08:05;9.70;;;4.45;;
15482;SDS011;7843;50.330;7.312;2024-01-07T01:10:32;8.75;;;4.38;;
15482;SDS011;7843;50.330;7.312;2024-01-07T01:12:58;12.60;;;5.13;;
15482;SDS011;7843;50.330;7.312;2024-01-07T01:15:25;9.27;;;4.28;;
15482;SDS011;7843;50.330;7.312;2024-01-07T01:17:52;10.65;;;5.03;;
15482;SDS011;7843;50.330;7.312;2024-01-07T01:20:18;7.25;;;3.42;;
15482;SDS011;7843;50.330;7.312;2024-01-07T01:22:45;7.28;;;4.10;;
15482;SDS011;7843;50.330;7.312;2024-01-07T01:25:12;7.07;;;4.10;;
15482;SDS011;7843;50.330;7.312;2024-01-07T01:27:39;11.77;;;4.10;;
15482;SDS011;7843;50.330;7.312;2024-01-07T01:30:05;11.73;;;5.82;;
15482;SDS011;7843;50.330;7.312;2024-01-07T01:32:33;10.90;;;4.85;;
15482;SDS011;7843;50.330;7.312;2024-01-07T01:34:59;11.27;;;4.97;;
15482;SDS011;7843;50.330;7.312;2024-01-07T01:37:27;9.03;;;4.80;;
15482;SDS011;7843;50.330;7.312;2024-01-07T01:39:53;9.93;;;3.70;;
15482;SDS011;7843;50.330;7.312;2024-01-07T01:42:20;13.45;;;5.40;;
15482;SDS011;7843;50.330;7.312;2024-01-07T01:44:47;13.30;;;5.97;;
15482;SDS011;7843;50.330;7.312;2024-01-07T01:47:13;6.82;;;3.42;;
15482;SDS011;7843;50.330;7.312;2024-01-07T01:49:41;4.78;;;3.45;;
15482;SDS011;7843;50.330;7.312;2024-01-07T01:52:08;8.60;;;4.30;;
15482;SDS011;7843;50.330;7.312;2024-01-07T01:54:36;5.35;;;2.90;;
15482;SDS011;7843;50.330;7.312;2024-01-07T01:57:03;8.70;;;4.07;;
15482;SDS011;7843;50.330;7.312;2024-01-07T01:59:30;7.57;;;3.70;;
15482;SDS011;7843;50.330;7.312;2024-01-07T02:02:00;7.15;;;3.50;;
15482;SDS011;7843;50.330;7.312;2024-01-07T02:04:27;5.53;;;3.38;;
15482;SDS011;7843;50.330;7.312;2024-01-07T02:06:54;7.13;;;3.63;;
15482;SDS011;7843;50.330;7.312;2024-01-07T02:09:21;6.50;;;3.37;;
15482;SDS011;7843;50.330;7.312;2024-01-07T02:12:03;6.07;;;3.43;;
15482;SDS011;7843;50.330;7.312;2024-01-07T02:14:31;7.95;;;3.20;;
15482;SDS011;7843;50.330;7.312;2024-01-07T02:16:58;5.82;;;3.97;;
15482;SDS011;7843;50.330;7.312;2024-01-07T02:19:25;4.82;;;3.42;;
15482;SDS011;7843;50.330;7.312;2024-01-07T02:21:52;4.90;;;3.25;;
15482;SDS011;7843;50.330;7.312;2024-01-07T02:24:19;8.77;;;3.72;;
15482;SDS011;7843;50.330;7.312;2024-01-07T02:26:45;10.05;;;3.05;;
15482;SDS011;7843;50.330;7.312;2024-01-07T02:29:12;8.27;;;3.58;;
15482;SDS011;7843;50.330;7.312;2024-01-07T02:31:40;6.67;;;3.93;;
15482;SDS011;7843;50.330;7.312;2024-01-07T02:34:10;6.10;;;3.42;;
15482;SDS011;7843;50.330;7.312;2024-01-07T02:36:37;10.07;;;4.53;;
15482;SDS011;7843;50.330;7.312;2024-01-07T02:39:04;9.70;;;4.07;;
15482;SDS011;7843;50.330;7.312;2024-01-07T02:41:31;12.57;;;4.30;;
15482;SDS011;7843;50.330;7.312;2024-01-07T02:43:57;9.13;;;4.28;;
15482;SDS011;7843;50.330;7.312;2024-01-07T02:46:24;6.97;;;3.77;;
15482;SDS011;7843;50.330;7.312;2024-01-07T02:48:51;8.20;;;3.70;;
15482;SDS011;7843;50.330;7.312;2024-01-07T02:51:20;5.53;;;3.63;;
15482;SDS011;7843;50.330;7.312;2024-01-07T02:53:46;7.20;;;3.22;;
15482;SDS011;7843;50.330;7.312;2024-01-07T02:56:13;7.55;;;3.30;;
15482;SDS011;7843;50.330;7.312;2024-01-07T02:58:40;7.28;;;3.72;;
15482;SDS011;7843;50.330;7.312;2024-01-07T03:01:09;5.93;;;3.23;;
15482;SDS011;7843;50.330;7.312;2024-01-07T03:03:37;9.05;;;4.75;;
15482;SDS011;7843;50.330;7.312;2024-01-07T03:06:04;5.65;;;3.20;;
15482;SDS011;7843;50.330;7.312;2024-01-07T03:22:44;6.93;;;2.93;;
15482;SDS011;7843;50.330;7.312;2024-01-07T03:25:11;6.37;;;3.67;;
15482;SDS011;7843;50.330;7.312;2024-01-07T03:27:38;7.87;;;4.00;;
15482;SDS011;7843;50.330;7.312;2024-01-07T03:30:05;7.50;;;3.30;;
15482;SDS011;7843;50.330;7.312;2024-01-07T03:32:32;5.95;;;3.42;;
15482;SDS011;7843;50.330;7.312;2024-01-07T03:34:58;4.35;;;2.75;;
15482;SDS011;7843;50.330;7.312;2024-01-07T03:37:25;8.77;;;3.78;;
15482;SDS011;7843;50.330;7.312;2024-01-07T03:39:52;4.93;;;2.85;;
15482;SDS011;7843;50.330;7.312;2024-01-07T03:42:21;5.20;;;3.15;;
15482;SDS011;7843;50.330;7.312;2024-01-07T03:44:48;7.27;;;3.00;;
15482;SDS011;7843;50.330;7.312;2024-01-07T03:47:15;5.18;;;3.08;;
15482;SDS011;7843;50.330;7.312;2024-01-07T03:49:42;7.95;;;3.60;;
15482;SDS011;7843;50.330;7.312;2024-01-07T03:52:09;6.70;;;3.83;;
15482;SDS011;7843;50.330;7.312;2024-01-07T03:54:35;7.93;;;3.08;;
15482;SDS011;7843;50.330;7.312;2024-01-07T03:57:02;6.68;;;3.22;;
15482;SDS011;7843;50.330;7.312;2024-01-07T03:59:29;5.97;;;2.75;;
15482;SDS011;7843;50.330;7.312;2024-01-07T04:01:56;8.63;;;5.05;;
15482;SDS011;7843;50.330;7.312;2024-01-07T04:04:23;7.13;;;3.55;;
15482;SDS011;7843;50.330;7.312;2024-01-07T04:06:50;7.45;;;3.58;;
15482;SDS011;7843;50.330;7.312;2024-01-07T04:09:17;5.63;;;2.90;;
15482;SDS011;7843;50.330;7.312;2024-01-07T04:11:43;8.20;;;3.80;;
15482;SDS011;7843;50.330;7.312;2024-01-07T04:14:10;5.47;;;3.17;;
15482;SDS011;7843;50.330;7.312;2024-01-07T04:16:40;6.22;;;3.28;;
15482;SDS011;7843;50.330;7.312;2024-01-07T04:19:07;3.92;;;2.50;;
15482;SDS011;7843;50.330;7.312;2024-01-07T04:21:34;5.03;;;2.63;;
15482;SDS011;7843;50.330;7.312;2024-01-07T04:24:01;6.38;;;3.25;;
15482;SDS011;7843;50.330;7.312;2024-01-07T04:26:28;5.35;;;3.03;;
15482;SDS011;7843;50.330;7.312;2024-01-07T04:28:55;6.22;;;2.50;;
15482;SDS011;7843;50.330;7.312;2024-01-07T04:31:21;4.03;;;2.55;;
15482;SDS011;7843;50.330;7.312;2024-01-07T04:33:48;4.53;;;2.25;;
15482;SDS011;7843;50.330;7.312;2024-01-07T04:36:15;4.60;;;2.78;;
15482;SDS011;7843;50.330;7.312;2024-01-07T04:38:41;5.50;;;2.38;;
15482;SDS011;7843;50.330;7.312;2024-01-07T04:41:08;6.45;;;2.90;;
15482;SDS011;7843;50.330;7.312;2024-01-07T04:43:35;4.03;;;2.55;;
15482;SDS011;7843;50.330;7.312;2024-01-07T04:46:03;3.45;;;2.13;;
15482;SDS011;7843;50.330;7.312;2024-01-07T04:48:29;4.43;;;2.35;;
15482;SDS011;7843;50.330;7.312;2024-01-07T04:50:56;5.28;;;2.53;;
15482;SDS011;7843;50.330;7.312;2024-01-07T04:53:23;2.55;;;1.95;;
15482;SDS011;7843;50.330;7.312;2024-01-07T04:55:50;2.58;;;1.90;;
15482;SDS011;7843;50.330;7.312;2024-01-07T04:58:16;4.60;;;2.40;;
15482;SDS011;7843;50.330;7.312;2024-01-07T05:00:43;4.07;;;2.13;;
15482;SDS011;7843;50.330;7.312;2024-01-07T05:03:10;3.73;;;1.87;;
15482;SDS011;7843;50.330;7.312;2024-01-07T05:05:36;4.63;;;2.33;;
15482;SDS011;7843;50.330;7.312;2024-01-07T05:08:04;4.10;;;2.30;;
15482;SDS011;7843;50.330;7.312;2024-01-07T05:10:31;3.73;;;1.70;;
15482;SDS011;7843;50.330;7.312;2024-01-07T05:12:58;2.33;;;2.03;;
15482;SDS011;7843;50.330;7.312;2024-01-07T05:15:28;3.53;;;1.73;;
15482;SDS011;7843;50.330;7.312;2024-01-07T05:17:54;2.50;;;1.88;;
15482;SDS011;7843;50.330;7.312;2024-01-07T05:20:21;4.32;;;2.03;;
15482;SDS011;7843;50.330;7.312;2024-01-07T05:22:48;3.83;;;1.93;;
15482;SDS011;7843;50.330;7.312;2024-01-07T05:25:14;3.50;;;1.92;;
15482;SDS011;7843;50.330;7.312;2024-01-07T05:27:41;3.67;;;1.95;;
15482;SDS011;7843;50.330;7.312;2024-01-07T05:30:08;2.00;;;1.60;;
15482;SDS011;7843;50.330;7.312;2024-01-07T05:32:34;4.90;;;1.83;;
15482;SDS011;7843;50.330;7.312;2024-01-07T05:35:01;2.05;;;1.38;;
15482;SDS011;7843;50.330;7.312;2024-01-07T05:37:28;3.67;;;2.13;;
15482;SDS011;7843;50.330;7.312;2024-01-07T05:39:55;4.30;;;2.88;;
15482;SDS011;7843;50.330;7.312;2024-01-07T05:42:21;3.35;;;1.92;;
15482;SDS011;7843;50.330;7.312;2024-01-07T05:44:48;3.38;;;1.77;;
15482;SDS011;7843;50.330;7.312;2024-01-07T05:47:15;2.70;;;1.63;;
15482;SDS011;7843;50.330;7.312;2024-01-07T05:49:43;2.30;;;1.55;;
15482;SDS011;7843;50.330;7.312;2024-01-07T05:52:09;3.38;;;1.92;;
15482;SDS011;7843;50.330;7.312;2024-01-07T05:54:36;4.18;;;2.15;;
15482;SDS011;7843;50.330;7.312;2024-01-07T05:57:03;3.40;;;1.50;;
15482;SDS011;7843;50.330;7.312;2024-01-07T05:59:30;2.22;;;1.45;;
15482;SDS011;7843;50.330;7.312;2024-01-07T06:01:59;3.05;;;2.03;;
15482;SDS011;7843;50.330;7.312;2024-01-07T06:04:26;3.60;;;1.50;;
15482;SDS011;7843;50.330;7.312;2024-01-07T06:06:53;3.83;;;1.73;;
15482;SDS011;7843;50.330;7.312;2024-01-07T06:09:20;4.78;;;1.83;;
15482;SDS011;7843;50.330;7.312;2024-01-07T06:11:46;3.40;;;1.63;;
15482;SDS011;7843;50.330;7.312;2024-01-07T06:14:13;2.63;;;1.63;;
15482;SDS011;7843;50.330;7.312;2024-01-07T06:16:41;2.50;;;1.60;;
15482;SDS011;7843;50.330;7.312;2024-01-07T06:19:08;2.53;;;1.40;;
15482;SDS011;7843;50.330;7.312;2024-01-07T06:21:38;3.42;;;1.77;;
15482;SDS011;7843;50.330;7.312;2024-01-07T06:24:05;6.03;;;2.08;;
15482;SDS011;7843;50.330;7.312;2024-01-07T06:26:34;2.17;;;1.40;;
15482;SDS011;7843;50.330;7.312;2024-01-07T06:29:01;3.75;;;1.20;;
15482;SDS011;7843;50.330;7.312;2024-01-07T06:31:27;2.53;;;1.77;;
15482;SDS011;7843;50.330;7.312;2024-01-07T06:33:54;1.98;;;1.30;;
15482;SDS011;7843;50.330;7.312;2024-01-07T06:36:24;1.40;;;1.13;;
15482;SDS011;7843;50.330;7.312;2024-01-07T06:38:51;2.10;;;1.80;;
15482;SDS011;7843;50.330;7.312;2024-01-07T06:41:18;3.00;;;1.58;;
15482;SDS011;7843;50.330;7.312;2024-01-07T06:43:45;6.30;;;2.53;;
15482;SDS011;7843;50.330;7.312;2024-01-07T06:46:12;2.33;;;1.30;;
15482;SDS011;7843;50.330;7.312;2024-01-07T06:48:39;3.10;;;1.60;;
15482;SDS011;7843;50.330;7.312;2024-01-07T06:51:08;2.42;;;1.55;;
15482;SDS011;7843;50.330;7.312;2024-01-07T06:53:34;3.35;;;1.70;;
15482;SDS011;7843;50.330;7.312;2024-01-07T06:56:01;2.70;;;1.30;;
15482;SDS011;7843;50.330;7.312;2024-01-07T06:58:28;3.08;;;1.90;;
15482;SDS011;7843;50.330;7.312;2024-01-07T07:00:54;3.63;;;1.88;;
15482;SDS011;7843;50.330;7.312;2024-01-07T07:03:21;1.88;;;1.40;;
15482;SDS011;7843;50.330;7.312;2024-01-07T07:05:48;1.40;;;1.30;;
15482;SDS011;7843;50.330;7.312;2024-01-07T07:08:15;1.15;;;1.00;;
15482;SDS011;7843;50.330;7.312;2024-01-07T07:10:42;1.53;;;1.10;;
15482;SDS011;7843;50.330;7.312;2024-01-07T07:13:08;2.60;;;1.38;;
15482;SDS011;7843;50.330;7.312;2024-01-07T07:15:35;1.65;;;0.82;;
15482;SDS011;7843;50.330;7.312;2024-01-07T07:18:02;2.15;;;1.30;;
15482;SDS011;7843;50.330;7.312;2024-01-07T07:20:29;1.15;;;1.05;;
15482;SDS011;7843;50.330;7.312;2024-01-07T07:22:56;2.67;;;1.55;;
15482;SDS011;7843;50.330;7.312;2024-01-07T07:25:23;2.58;;;1.23;;
15482;SDS011;7843;50.330;7.312;2024-01-07T07:27:49;1.98;;;1.30;;
15482;SDS011;7843;50.330;7.312;2024-01-07T07:30:16;2.67;;;1.15;;
15482;SDS011;7843;50.330;7.312;2024-01-07T07:32:44;1.25;;;1.15;;
15482;SDS011;7843;50.330;7.312;2024-01-07T07:35:10;1.60;;;1.33;;
15482;SDS011;7843;50.330;7.312;2024-01-07T07:37:38;2.60;;;1.67;;
15482;SDS011;7843;50.330;7.312;2024-01-07T07:40:05;1.88;;;1.65;;
15482;SDS011;7843;50.330;7.312;2024-01-07T07:42:32;1.50;;;1.33;;
15482;SDS011;7843;50.330;7.312;2024-01-07T07:44:59;1.98;;;1.27;;
15482;SDS011;7843;50.330;7.312;2024-01-07T07:47:25;3.65;;;1.60;;
15482;SDS011;7843;50.330;7.312;2024-01-07T07:49:52;2.53;;;1.80;;
15482;SDS011;7843;50.330;7.312;2024-01-07T07:52:19;2.13;;;1.53;;
15482;SDS011;7843;50.330;7.312;2024-01-07T07:54:49;1.90;;;1.58;;
15482;SDS011;7843;50.330;7.312;2024-01-07T07:57:16;2.92;;;1.70;;
15482;SDS011;7843;50.330;7.312;2024-01-07T07:59:43;3.78;;;1.85;;
15482;SDS011;7843;50.330;7.312;2024-01-07T08:02:09;2.78;;;1.77;;
15482;SDS011;7843;50.330;7.312;2024-01-07T08:04:36;2.78;;;1.67;;
15482;SDS011;7843;50.330;7.312;2024-01-07T08:07:03;2.53;;;1.80;;
15482;SDS011;7843;50.330;7.312;2024-01-07T08:09:30;5.00;;;2.58;;
15482;SDS011;7843;50.330;7.312;2024-01-07T08:11:56;3.63;;;1.80;;
15482;SDS011;7843;50.330;7.312;2024-01-07T08:14:23;3.30;;;1.92;;
15482;SDS011;7843;50.330;7.312;2024-01-07T08:16:50;3.38;;;1.70;;
15482;SDS011;7843;50.330;7.312;2024-01-07T08:19:16;4.50;;;2.72;;
15482;SDS011;7843;50.330;7.312;2024-01-07T08:21:43;3.10;;;2.28;;
15482;SDS011;7843;50.330;7.312;2024-01-07T08:24:10;4.22;;;2.45;;
15482;SDS011;7843;50.330;7.312;2024-01-07T08:26:37;9.18;;;2.58;;
15482;SDS011;7843;50.330;7.312;2024-01-07T08:29:04;4.50;;;2.70;;
15482;SDS011;7843;50.330;7.312;2024-01-07T08:31:31;4.18;;;2.55;;
15482;SDS011;7843;50.330;7.312;2024-01-07T08:33:58;6.63;;;3.75;;
15482;SDS011;7843;50.330;7.312;2024-01-07T08:36:25;7.53;;;3.75;;
15482;SDS011;7843;50.330;7.312;2024-01-07T08:38:51;4.97;;;2.85;;
15482;SDS011;7843;50.330;7.312;2024-01-07T08:41:18;6.82;;;4.25;;
15482;SDS011;7843;50.330;7.312;2024-01-07T08:43:45;6.30;;;3.83;;
15482;SDS011;7843;50.330;7.312;2024-01-07T08:46:11;5.88;;;3.47;;
15482;SDS011;7843;50.330;7.312;2024-01-07T08:48:40;6.90;;;3.03;;
15482;SDS011;7843;50.330;7.312;2024-01-07T08:51:06;6.53;;;3.28;;
15482;SDS011;7843;50.330;7.312;2024-01-07T08:53:33;6.25;;;3.88;;
15482;SDS011;7843;50.330;7.312;2024-01-07T08:56:00;6.03;;;3.05;;
15482;SDS011;7843;50.330;7.312;2024-01-07T08:58:27;10.07;;;4.35;;
15482;SDS011;7843;50.330;7.312;2024-01-07T09:00:53;5.97;;;2.97;;
15482;SDS011;7843;50.330;7.312;2024-01-07T09:03:20;4.90;;;3.30;;
15482;SDS011;7843;50.330;7.312;2024-01-07T09:05:47;6.10;;;3.75;;
15482;SDS011;7843;50.330;7.312;2024-01-07T09:08:13;7.82;;;3.95;;
15482;SDS011;7843;50.330;7.312;2024-01-07T09:10:40;5.70;;;3.42;;
15482;SDS011;7843;50.330;7.312;2024-01-07T09:13:07;7.78;;;4.40;;
15482;SDS011;7843;50.330;7.312;2024-01-07T09:15:34;7.50;;;3.22;;
15482;SDS011;7843;50.330;7.312;2024-01-07T09:18:01;6.65;;;3.47;;
15482;SDS011;7843;50.330;7.312;2024-01-07T09:20:27;8.35;;;4.57;;
15482;SDS011;7843;50.330;7.312;2024-01-07T09:22:54;11.10;;;3.30;;
15482;SDS011;7843;50.330;7.312;2024-01-07T09:25:21;6.55;;;3.30;;
15482;SDS011;7843;50.330;7.312;2024-01-07T09:27:48;5.53;;;2.85;;
15482;SDS011;7843;50.330;7.312;2024-01-07T09:30:14;9.05;;;3.45;;
15482;SDS011;7843;50.330;7.312;2024-01-07T09:32:41;5.93;;;3.47;;
15482;SDS011;7843;50.330;7.312;2024-01-07T09:35:08;6.87;;;4.30;;
15482;SDS011;7843;50.330;7.312;2024-01-07T09:37:35;11.27;;;3.85;;
15482;SDS011;7843;50.330;7.312;2024-01-07T09:40:03;10.88;;;4.32;;
15482;SDS011;7843;50.330;7.312;2024-01-07T09:42:38;11.90;;;5.00;;
15482;SDS011;7843;50.330;7.312;2024-01-07T09:45:04;7.32;;;3.33;;
15482;SDS011;7843;50.330;7.312;2024-01-07T09:47:32;7.03;;;4.23;;
15482;SDS011;7843;50.330;7.312;2024-01-07T09:49:59;8.57;;;4.70;;
15482;SDS011;7843;50.330;7.312;2024-01-07T09:52:26;5.75;;;3.28;;
15482;SDS011;7843;50.330;7.312;2024-01-07T09:54:53;5.93;;;3.67;;
15482;SDS011;7843;50.330;7.312;2024-01-07T09:57:29;9.68;;;5.32;;
15482;SDS011;7843;50.330;7.312;2024-01-07T09:59:56;13.02;;;5.95;;
15482;SDS011;7843;50.330;7.312;2024-01-07T10:02:23;7.60;;;3.78;;
15482;SDS011;7843;50.330;7.312;2024-01-07T10:04:50;5.10;;;3.47;;
15482;SDS011;7843;50.330;7.312;2024-01-07T10:07:17;4.88;;;2.95;;
15482;SDS011;7843;50.330;7.312;2024-01-07T10:09:44;7.40;;;3.57;;
15482;SDS011;7843;50.330;7.312;2024-01-07T10:12:10;10.35;;;3.80;;
15482;SDS011;7843;50.330;7.312;2024-01-07T10:14:38;6.32;;;3.92;;
15482;SDS011;7843;50.330;7.312;2024-01-07T10:17:16;8.25;;;4.40;;
15482;SDS011;7843;50.330;7.312;2024-01-07T10:19:43;6.30;;;4.00;;
15482;SDS011;7843;50.330;7.312;2024-01-07T10:22:12;11.45;;;5.72;;
15482;SDS011;7843;50.330;7.312;2024-01-07T10:24:40;7.90;;;4.10;;
15482;SDS011;7843;50.330;7.312;2024-01-07T10:27:08;6.80;;;3.93;;
15482;SDS011;7843;50.330;7.312;2024-01-07T10:29:36;7.38;;;4.15;;
15482;SDS011;7843;50.330;7.312;2024-01-07T10:32:03;7.28;;;3.75;;
15482;SDS011;7843;50.330;7.312;2024-01-07T10:34:32;9.35;;;4.43;;
15482;SDS011;7843;50.330;7.312;2024-01-07T10:37:03;6.63;;;3.50;;
15482;SDS011;7843;50.330;7.312;2024-01-07T10:39:34;10.30;;;4.53;;
15482;SDS011;7843;50.330;7.312;2024-01-07T10:42:02;8.50;;;4.00;;
15482;SDS011;7843;50.330;7.312;2024-01-07T10:44:29;6.78;;;3.38;;
15482;SDS011;7843;50.330;7.312;2024-01-07T10:46:57;7.40;;;4.68;;
15482;SDS011;7843;50.330;7.312;2024-01-07T10:49:25;5.13;;;3.60;;
15482;SDS011;7843;50.330;7.312;2024-01-07T10:51:56;6.25;;;3.42;;
15482;SDS011;7843;50.330;7.312;2024-01-07T10:54:34;6.63;;;4.03;;
15482;SDS011;7843;50.330;7.312;2024-01-07T10:59:47;8.70;;;4.70;;
15482;SDS011;7843;50.330;7.312;2024-01-07T11:02:17;7.57;;;4.28;;
15482;SDS011;7843;50.330;7.312;2024-01-07T11:05:34;6.88;;;4.45;;
15482;SDS011;7843;50.330;7.312;2024-01-07T11:07:48;8.10;;;4.38;;
15482;SDS011;7843;50.330;7.312;2024-01-07T11:10:29;8.95;;;4.50;;
15482;SDS011;7843;50.330;7.312;2024-01-07T11:13:07;9.38;;;4.38;;
15482;SDS011;7843;50.330;7.312;2024-01-07T11:18:19;7.13;;;4.13;;
15482;SDS011;7843;50.330;7.312;2024-01-07T11:20:47;9.93;;;4.70;;
15482;SDS011;7843;50.330;7.312;2024-01-07T11:23:30;9.32;;;3.85;;
15482;SDS011;7843;50.330;7.312;2024-01-07T11:26:03;6.53;;;4.28;;
15482;SDS011;7843;50.330;7.312;2024-01-07T11:28:41;6.68;;;3.75;;
15482;SDS011;7843;50.330;7.312;2024-01-07T11:31:09;8.07;;;3.88;;
15482;SDS011;7843;50.330;7.312;2024-01-07T11:33:36;7.53;;;3.55;;
15482;SDS011;7843;50.330;7.312;2024-01-07T11:36:06;8.82;;;4.43;;
15482;SDS011;7843;50.330;7.312;2024-01-07T11:38:34;5.50;;;3.25;;
15482;SDS011;7843;50.330;7.312;2024-01-07T11:41:03;7.22;;;4.18;;
15482;SDS011;7843;50.330;7.312;2024-01-07T11:43:32;6.68;;;3.53;;
15482;SDS011;7843;50.330;7.312;2024-01-07T11:46:00;4.68;;;2.97;;
15482;SDS011;7843;50.330;7.312;2024-01-07T11:48:27;6.78;;;3.55;;
15482;SDS011;7843;50.330;7.312;2024-01-07T11:50:54;6.07;;;3.80;;
15482;SDS011;7843;50.330;7.312;2024-01-07T11:53:21;7.38;;;3.83;;
15482;SDS011;7843;50.330;7.312;2024-01-07T11:55:48;4.85;;;3.03;;
15482;SDS011;7843;50.330;7.312;2024-01-07T11:58:14;5.97;;;3.25;;
15482;SDS011;7843;50.330;7.312;2024-01-07T12:00:42;9.18;;;4.25;;
15482;SDS011;7843;50.330;7.312;2024-01-07T12:03:08;7.20;;;4.25;;
15482;SDS011;7843;50.330;7.312;2024-01-07T12:05:35;6.25;;;3.47;;
15482;SDS011;7843;50.330;7.312;2024-01-07T12:08:02;8.98;;;4.03;;
15482;SDS011;7843;50.330;7.312;2024-01-07T12:10:29;7.53;;;3.80;;
15482;SDS011;7843;50.330;7.312;2024-01-07T12:12:57;7.80;;;3.65;;
15482;SDS011;7843;50.330;7.312;2024-01-07T12:15:24;6.63;;;3.10;;
15482;SDS011;7843;50.330;7.312;2024-01-07T12:17:56;6.40;;;3.93;;
15482;SDS011;7843;50.330;7.312;2024-01-07T12:20:27;10.77;;;4.57;;
15482;SDS011;7843;50.330;7.312;2024-01-07T12:22:57;6.05;;;3.95;;
15482;SDS011;7843;50.330;7.312;2024-01-07T12:25:31;7.72;;;4.28;;
15482;SDS011;7843;50.330;7.312;2024-01-07T12:27:58;8.25;;;4.72;;
15482;SDS011;7843;50.330;7.312;2024-01-07T12:30:25;9.18;;;4.18;;
15482;SDS011;7843;50.330;7.312;2024-01-07T12:32:52;6.32;;;3.35;;
15482;SDS011;7843;50.330;7.312;2024-01-07T12:35:19;8.05;;;4.88;;
15482;SDS011;7843;50.330;7.312;2024-01-07T12:37:45;8.30;;;4.20;;
15482;SDS011;7843;50.330;7.312;2024-01-07T12:40:14;8.63;;;4.57;;
15482;SDS011;7843;50.330;7.312;2024-01-07T12:42:41;7.10;;;3.92;;
15482;SDS011;7843;50.330;7.312;2024-01-07T12:45:12;5.88;;;3.63;;
15482;SDS011;7843;50.330;7.312;2024-01-07T12:47:40;6.00;;;2.80;;
15482;SDS011;7843;50.330;7.312;2024-01-07T12:50:08;5.95;;;3.78;;
15482;SDS011;7843;50.330;7.312;2024-01-07T12:52:38;8.05;;;4.28;;
15482;SDS011;7843;50.330;7.312;2024-01-07T12:55:06;9.00;;;4.35;;
15482;SDS011;7843;50.330;7.312;2024-01-07T12:57:34;7.22;;;4.18;;
15482;SDS011;7843;50.330;7.312;2024-01-07T13:00:02;7.40;;;4.17;;
15482;SDS011;7843;50.330;7.312;2024-01-07T13:02:32;7.22;;;4.00;;
15482;SDS011;7843;50.330;7.312;2024-01-07T13:05:00;6.85;;;4.05;;
15482;SDS011;7843;50.330;7.312;2024-01-07T13:07:27;6.30;;;3.78;;
15482;SDS011;7843;50.330;7.312;2024-01-07T13:09:54;6.82;;;3.92;;
15482;SDS011;7843;50.330;7.312;2024-01-07T13:12:20;7.55;;;4.05;;
15482;SDS011;7843;50.330;7.312;2024-01-07T13:14:47;6.45;;;2.95;;
15482;SDS011;7843;50.330;7.312;2024-01-07T13:17:14;5.72;;;3.67;;
15482;SDS011;7843;50.330;7.312;2024-01-07T13:19:41;7.43;;;3.88;;
15482;SDS011;7843;50.330;7.312;2024-01-07T13:22:08;7.60;;;3.42;;
15482;SDS011;7843;50.330;7.312;2024-01-07T13:24:35;7.25;;;4.22;;
15482;SDS011;7843;50.330;7.312;2024-01-07T13:27:02;6.47;;;3.72;;
15482;SDS011;7843;50.330;7.312;2024-01-07T13:29:30;8.55;;;4.30;;
15482;SDS011;7843;50.330;7.312;2024-01-07T13:31:56;8.15;;;4.15;;
15482;SDS011;7843;50.330;7.312;2024-01-07T13:34:23;7.35;;;3.63;;
15482;SDS011;7843;50.330;7.312;2024-01-07T13:36:50;6.88;;;3.50;;
15482;SDS011;7843;50.330;7.312;2024-01-07T13:39:19;7.93;;;3.83;;
15482;SDS011;7843;50.330;7.312;2024-01-07T13:41:47;7.05;;;3.53;;
15482;SDS011;7843;50.330;7.312;2024-01-07T13:44:14;5.00;;;3.13;;
15482;SDS011;7843;50.330;7.312;2024-01-07T13:46:44;4.20;;;3.22;;
15482;SDS011;7843;50.330;7.312;2024-01-07T13:49:13;9.23;;;4.53;;
15482;SDS011;7843;50.330;7.312;2024-01-07T13:51:40;6.65;;;3.95;;
15482;SDS011;7843;50.330;7.312;2024-01-07T13:54:08;7.28;;;4.28;;
15482;SDS011;7843;50.330;7.312;2024-01-07T13:56:36;6.93;;;3.83;;
15482;SDS011;7843;50.330;7.312;2024-01-07T13:59:04;6.93;;;3.83;;
15482;SDS011;7843;50.330;7.312;2024-01-07T14:01:31;5.72;;;3.42;;
15482;SDS011;7843;50.330;7.312;2024-01-07T14:03:58;8.88;;;4.05;;
15482;SDS011;7843;50.330;7.312;2024-01-07T14:06:24;6.20;;;3.53;;
15482;SDS011;7843;50.330;7.312;2024-01-07T14:08:51;6.68;;;3.63;;
15482;SDS011;7843;50.330;7.312;2024-01-07T14:11:21;5.18;;;2.88;;
15482;SDS011;7843;50.330;7.312;2024-01-07T14:13:48;5.35;;;3.20;;
15482;SDS011;7843;50.330;7.312;2024-01-07T14:16:14;4.28;;;3.13;;
15482;SDS011;7843;50.330;7.312;2024-01-07T14:18:41;4.30;;;3.03;;
15482;SDS011;7843;50.330;7.312;2024-01-07T14:21:10;3.90;;;2.80;;
15482;SDS011;7843;50.330;7.312;2024-01-07T14:23:37;7.57;;;4.15;;
15482;SDS011;7843;50.330;7.312;2024-01-07T14:26:03;4.20;;;2.60;;
15482;SDS011;7843;50.330;7.312;2024-01-07T14:28:30;5.47;;;3.55;;
15482;SDS011;7843;50.330;7.312;2024-01-07T14:30:57;4.72;;;3.30;;
15482;SDS011;7843;50.330;7.312;2024-01-07T14:33:24;5.40;;;3.90;;
15482;SDS011;7843;50.330;7.312;2024-01-07T14:35:51;6.45;;;3.90;;
15482;SDS011;7843;50.330;7.312;2024-01-07T14:38:17;5.15;;;3.05;;
15482;SDS011;7843;50.330;7.312;2024-01-07T14:40:44;5.33;;;3.37;;
15482;SDS011;7843;50.330;7.312;2024-01-07T14:43:12;5.23;;;2.70;;
15482;SDS011;7843;50.330;7.312;2024-01-07T14:45:39;4.30;;;3.15;;
15482;SDS011;7843;50.330;7.312;2024-01-07T14:48:06;5.10;;;3.38;;
15482;SDS011;7843;50.330;7.312;2024-01-07T14:50:34;5.07;;;3.40;;
15482;SDS011;7843;50.330;7.312;2024-01-07T14:53:01;7.13;;;4.05;;
15482;SDS011;7843;50.330;7.312;2024-01-07T14:55:29;8.15;;;4.25;;
15482;SDS011;7843;50.330;7.312;2024-01-07T14:57:56;6.57;;;3.57;;
15482;SDS011;7843;50.330;7.312;2024-01-07T15:00:22;6.00;;;3.87;;
15482;SDS011;7843;50.330;7.312;2024-01-07T15:02:49;7.60;;;4.10;;
15482;SDS011;7843;50.330;7.312;2024-01-07T15:05:17;6.28;;;3.47;;
15482;SDS011;7843;50.330;7.312;2024-01-07T15:07:43;10.63;;;3.88;;
15482;SDS011;7843;50.330;7.312;2024-01-07T15:10:14;4.72;;;3.35;;
15482;SDS011;7843;50.330;7.312;2024-01-07T15:12:43;4.65;;;2.83;;
15482;SDS011;7843;50.330;7.312;2024-01-07T15:15:12;3.40;;;2.45;;
15482;SDS011;7843;50.330;7.312;2024-01-07T15:17:39;4.57;;;2.58;;
15482;SDS011;7843;50.330;7.312;2024-01-07T15:20:06;6.10;;;3.15;;
15482;SDS011;7843;50.330;7.312;2024-01-07T15:22:33;4.87;;;2.87;;